Time;durP1;ratioP1;P1;durP2;ratioP2;P2;SDS_P1;SDS_P2;PMS_P1;PMS_P2;Temp;Humidity;BMP_temperature;BMP_pressure;BME280_temperature;BME280_humidity;BME280_pressure;Samples;Min_cycle;Max_cycle;Signal;HPM_P1;HPM_P2
2022/06/06 00:02:08;;;;;;;;;;;;;;;22.37;48.53;100746.34;4962438;28;5519;-69
2022/06/06 00:04:35;;;;;;;;;;;;;;;22.37;48.51;100745.63;4960604;28;4277;-69
2022/06/06 00:07:01;;;;;;;;;;;;;;;22.37;48.73;100745.63;4947845;28;6106;-69
2022/06/06 00:09:28;;;;;;;;;;;;;;;22.38;48.61;100741.34;4957241;28;4154;-69
2022/06/06 00:11:54;;;;;;;;;;;;;;;22.36;48.67;100736.22;4957353;28;4283;-68
2022/06/06 00:14:21;;;;;;;;;;;;;;;22.36;48.63;100738.38;4960622;28;4240;-69
2022/06/06 00:16:48;;;;;;;;;;;;;;;22.36;48.77;100733.34;4947508;28;4169;-69
2022/06/06 00:19:14;;;;;;;;;;;;;;;22.37;48.82;100734.09;4964230;28;4307;-69
2022/06/06 00:21:41;;;;;;;;;;;;;;;22.37;48.92;100742.72;4959919;28;4056;-69
2022/06/06 00:24:07;;;;;;;;;;;;;;;22.36;48.57;100738.38;4963218;28;6440;-69
2022/06/06 00:26:33;;;;;;;;;;;;;;;22.36;48.92;100738.38;4955868;28;4287;-69
2022/06/06 00:29:00;;;;;;;;;;;;;;;22.36;48.70;100744.88;4956376;28;4542;-69
2022/06/06 00:36:56;;;;;;;;;;;;;;;22.35;48.68;100743.38;4959870;28;5493;-69
2022/06/06 00:39:23;;;;;;;;;;;;;;;22.35;48.63;100734.75;4959994;28;4509;-69
2022/06/06 00:41:50;;;;;;;;;;;;;;;22.36;49.11;100749.91;4956100;28;4457;-69
2022/06/06 00:44:20;;;;;;;;;;;;;;;22.36;48.85;100744.88;4964247;28;4165;-69
2022/06/06 00:47:05;;;;;;;;;;;;;;;22.35;48.93;100751.31;4958614;28;4221;-68
2022/06/06 00:49:39;;;;;;;;;;;;;;;22.36;49.00;100744.16;4956637;28;4274;-69
2022/06/06 00:52:15;;;;;;;;;;;;;;;22.36;48.77;100747.03;4953694;28;4071;-69
2022/06/06 00:54:41;;;;;;;;;;;;;;;22.34;48.90;100741.94;4962153;28;4273;-69
2022/06/06 00:57:10;;;;;;;;;;;;;;;22.35;48.82;100745.53;4962025;28;4313;-69
2022/06/06 00:59:36;;;;;;;;;;;;;;;22.35;48.86;100734.00;4959918;28;4245;-69
2022/06/06 01:02:02;;;;;;;;;;;;;;;22.34;48.90;100723.88;4956167;28;5230;-69
2022/06/06 01:04:29;;;;;;;;;;;;;;;22.34;48.77;100735.44;4961130;28;4261;-69
2022/06/06 01:06:56;;;;;;;;;;;;;;;22.34;48.77;100732.53;4957112;28;4403;-69
2022/06/06 01:09:23;;;;;;;;;;;;;;;22.34;49.02;100739.03;4955296;28;5582;-69
2022/06/06 01:11:59;;;;;;;;;;;;;;;22.34;48.79;100732.53;4955357;28;4291;-69
2022/06/06 01:14:27;;;;;;;;;;;;;;;22.34;49.05;100739.03;4954624;28;4361;-69
2022/06/06 01:17:01;;;;;;;;;;;;;;;22.35;48.77;100751.31;4954941;28;4203;-68
2022/06/06 01:19:33;;;;;;;;;;;;;;;22.34;49.04;100749.84;4954270;28;4283;-69
2022/06/06 01:22:04;;;;;;;;;;;;;;;22.33;48.80;100757.00;4955650;28;5530;-69
2022/06/06 01:24:31;;;;;;;;;;;;;;;22.33;48.81;100757.00;4953583;28;4385;-69
2022/06/06 01:27:16;;;;;;;;;;;;;;;22.34;49.00;100772.94;4953329;28;4163;-68
2022/06/06 01:29:44;;;;;;;;;;;;;;;22.33;48.87;100768.53;4952197;28;4167;-69
2022/06/06 01:32:11;;;;;;;;;;;;;;;22.33;49.05;100751.22;4954607;28;4368;-69
2022/06/06 01:34:38;;;;;;;;;;;;;;;22.33;48.85;100733.94;4949854;28;4166;-69
2022/06/06 01:37:21;;;;;;;;;;;;;;;22.32;48.84;100741.13;4951994;28;4174;-69
2022/06/06 01:39:48;;;;;;;;;;;;;;;22.32;49.08;100730.31;4952676;28;4254;-68
2022/06/06 01:42:15;;;;;;;;;;;;;;;22.32;48.77;100718.78;4955838;28;4181;-69
2022/06/06 01:44:53;;;;;;;;;;;;;;;22.32;48.98;100718.03;4951313;28;4338;-69
2022/06/06 01:47:21;;;;;;;;;;;;;;;22.32;48.80;100715.16;4949240;28;4249;-69
2022/06/06 01:49:48;;;;;;;;;;;;;;;22.31;49.11;100714.41;4948015;28;4208;-69
2022/06/06 01:52:15;;;;;;;;;;;;;;;22.32;48.95;100712.28;4952138;28;4211;-69
2022/06/06 01:54:41;;;;;;;;;;;;;;;22.32;49.16;100720.91;4960940;28;4340;-69
2022/06/06 01:57:08;;;;;;;;;;;;;;;22.31;48.94;100714.41;4955693;28;5519;-69
2022/06/06 01:59:35;;;;;;;;;;;;;;;22.32;48.93;100718.03;4960508;28;5520;-69
2022/06/06 02:02:01;;;;;;;;;;;;;;;22.32;49.36;100718.03;4955158;28;5441;-68
2022/06/06 02:04:27;;;;;;;;;;;;;;;22.31;49.04;100713.66;4944981;28;4181;-69
2022/06/06 02:06:54;;;;;;;;;;;;;;;22.31;49.05;100717.31;4950795;28;4240;-68
2022/06/06 02:09:20;;;;;;;;;;;;;;;22.31;49.16;100725.19;4950112;28;4242;-69
2022/06/06 02:11:46;;;;;;;;;;;;;;;22.31;49.19;100725.19;4958817;28;4449;-69
2022/06/06 02:14:13;;;;;;;;;;;;;;;22.31;49.04;100730.97;4957816;28;4276;-69
2022/06/06 02:16:39;;;;;;;;;;;;;;;22.30;49.08;100724.47;4955522;28;4418;-69
2022/06/06 02:19:06;;;;;;;;;;;;;;;22.31;49.17;100725.19;4957447;28;4197;-69
2022/06/06 02:21:32;;;;;;;;;;;;;;;22.31;49.18;100719.44;4956069;28;4281;-69
2022/06/06 02:23:59;;;;;;;;;;;;;;;22.29;49.03;100728.78;4958491;28;4267;-69
2022/06/06 02:26:26;;;;;;;;;;;;;;;22.29;49.24;100711.47;4950243;28;4253;-69
2022/06/06 02:28:52;;;;;;;;;;;;;;;22.29;49.13;100713.59;4949839;28;5356;-68
2022/06/06 02:31:18;;;;;;;;;;;;;;;22.30;49.32;100715.81;4951091;28;4426;-69
2022/06/06 02:33:45;;;;;;;;;;;;;;;22.29;49.20;100725.16;4953005;28;5514;-69
2022/06/06 02:36:12;;;;;;;;;;;;;;;22.29;49.27;100720.13;4953900;28;4154;-69
2022/06/06 02:38:39;;;;;;;;;;;;;;;22.29;49.31;100719.38;4946352;28;4323;-69
2022/06/06 02:41:08;;;;;;;;;;;;;;;22.30;49.15;100729.50;4956053;28;4176;-69
2022/06/06 02:43:39;;;;;;;;;;;;;;;22.29;49.35;100736.69;4953515;28;4301;-68
2022/06/06 02:46:06;;;;;;;;;;;;;;;22.28;49.21;100726.53;4957089;28;5432;-69
2022/06/06 02:48:33;;;;;;;;;;;;;;;22.28;49.37;100729.41;4944955;28;4180;-69
2022/06/06 02:50:59;;;;;;;;;;;;;;;22.29;49.23;100748.22;4956260;28;4112;-69
2022/06/06 02:53:26;;;;;;;;;;;;;;;22.28;49.27;100743.84;4957951;28;4284;-69
2022/06/06 02:55:52;;;;;;;;;;;;;;;22.27;49.32;100748.88;4960438;28;5376;-68
2022/06/06 02:58:20;;;;;;;;;;;;;;;22.27;49.28;100748.16;4923425;28;969100;-69
2022/06/06 03:00:47;;;;;;;;;;;;;;;22.28;49.26;100752.50;4951587;28;4265;-66
2022/06/06 03:03:13;;;;;;;;;;;;;;;22.27;49.56;100753.91;4948775;28;5362;-69
2022/06/06 03:05:58;;;;;;;;;;;;;;;22.27;49.36;100765.44;4958415;28;4044;-69
2022/06/06 03:08:40;;;;;;;;;;;;;;;22.27;49.49;100765.44;4960281;28;5238;-68
2022/06/06 03:11:22;;;;;;;;;;;;;;;22.27;49.34;100777.72;4958093;28;5442;-69
2022/06/06 03:13:56;;;;;;;;;;;;;;;22.27;49.35;100779.88;4950759;28;4197;-68
2022/06/06 03:22:23;;;;;;;;;;;;;;;22.26;49.58;100807.22;4954648;28;5282;-69
2022/06/06 03:24:50;;;;;;;;;;;;;;;22.26;49.33;100807.22;4955029;28;4220;-68
2022/06/06 03:27:28;;;;;;;;;;;;;;;22.26;49.54;100810.09;4953480;28;4295;-69
2022/06/06 03:29:58;;;;;;;;;;;;;;;22.26;49.51;100810.84;4957942;28;4212;-69
2022/06/06 03:32:31;;;;;;;;;;;;;;;22.25;49.67;100808.66;4956749;28;4083;-69
2022/06/06 03:35:01;;;;;;;;;;;;;;;22.26;49.76;100816.63;4954712;28;5292;-69
2022/06/06 03:37:37;;;;;;;;;;;;;;;22.25;49.48;100823.78;4951487;28;5259;-70
2022/06/06 03:40:04;;;;;;;;;;;;;;;22.25;49.57;100826.69;4949972;28;4031;-69
2022/06/06 03:42:32;;;;;;;;;;;;;;;22.25;49.58;100832.44;4958808;28;4426;-70
2022/06/06 03:45:01;;;;;;;;;;;;;;;22.25;49.59;100831.72;4957440;28;4219;-70
2022/06/06 03:47:36;;;;;;;;;;;;;;;22.24;49.59;100830.22;4951204;28;4128;-69
2022/06/06 03:50:17;;;;;;;;;;;;;;;22.24;49.66;100836.00;4946916;28;5295;-69
2022/06/06 03:52:45;;;;;;;;;;;;;;;22.24;49.67;100841.75;4951948;28;4257;-70
2022/06/06 03:55:18;;;;;;;;;;;;;;;22.24;49.70;100847.53;4951553;28;4152;-70
2022/06/06 03:57:45;;;;;;;;;;;;;;;22.23;49.56;100852.56;4951080;28;4078;-70
2022/06/06 04:00:14;;;;;;;;;;;;;;;22.24;49.89;100847.53;4954186;28;4382;-70
2022/06/06 04:02:43;;;;;;;;;;;;;;;22.24;49.86;100851.19;4951005;28;4209;-70
2022/06/06 04:05:11;;;;;;;;;;;;;;;22.24;49.81;100850.41;4953076;28;4213;-70
2022/06/06 04:07:37;;;;;;;;;;;;;;;22.23;49.79;100841.03;4955323;28;4390;-69
2022/06/06 04:10:04;;;;;;;;;;;;;;;22.23;49.85;100851.81;4958542;28;4234;-70
2022/06/06 04:12:34;;;;;;;;;;;;;;;22.23;49.85;100857.59;4950841;28;4189;-69
2022/06/06 04:15:18;;;;;;;;;;;;;;;22.24;49.72;100859.06;4948508;28;4196;-70
2022/06/06 04:18:04;;;;;;;;;;;;;;;22.22;49.71;100862.63;4953784;28;4235;-69
2022/06/06 04:20:34;;;;;;;;;;;;;;;22.23;49.85;100860.47;4957146;28;4390;-70
2022/06/06 04:23:05;;;;;;;;;;;;;;;22.23;49.77;100857.59;4953354;28;4195;-69
2022/06/06 04:25:54;;;;;;;;;;;;;;;22.22;50.04;100856.88;4954641;28;4283;-69
2022/06/06 04:28:32;;;;;;;;;;;;;;;22.23;49.84;100857.59;4950555;28;4215;-69
2022/06/06 04:31:05;;;;;;;;;;;;;;;22.22;49.82;100856.88;4944324;28;4548;-70
2022/06/06 04:33:35;;;;;;;;;;;;;;;22.22;50.06;100850.34;4950790;28;4030;-70
2022/06/06 04:36:10;;;;;;;;;;;;;;;22.22;49.85;100853.22;4952746;28;4181;-69
2022/06/06 04:38:44;;;;;;;;;;;;;;;22.21;49.91;100858.25;4951277;28;4084;-69
2022/06/06 04:41:13;;;;;;;;;;;;;;;22.22;49.76;100856.09;4957288;28;4116;-69
2022/06/06 04:43:45;;;;;;;;;;;;;;;22.22;50.06;100856.09;4955226;28;4251;-70
2022/06/06 04:46:31;;;;;;;;;;;;;;;22.22;49.81;100862.63;4961657;28;4431;-70
2022/06/06 04:48:58;;;;;;;;;;;;;;;22.22;50.05;100864.75;4951554;28;4272;-70
2022/06/06 04:51:24;;;;;;;;;;;;;;;22.21;49.80;100866.91;4957280;28;4257;-70
2022/06/06 04:53:51;;;;;;;;;;;;;;;22.22;49.93;100861.88;4956272;28;4377;-70
2022/06/06 04:56:18;;;;;;;;;;;;;;;22.21;49.85;100869.78;4953775;28;5291;-70
2022/06/06 04:58:45;;;;;;;;;;;;;;;22.21;49.94;100866.13;4955321;28;4148;-70
2022/06/06 05:01:12;;;;;;;;;;;;;;;22.21;49.99;100874.78;4972282;28;4255;-69
2022/06/06 05:03:38;;;;;;;;;;;;;;;22.22;50.28;100882.06;4963520;28;4119;-70
2022/06/06 05:06:11;;;;;;;;;;;;;;;22.21;50.16;100877.69;4955564;28;4205;-70
2022/06/06 05:08:56;;;;;;;;;;;;;;;22.20;50.13;100876.94;4947468;28;4220;-70
2022/06/06 05:11:34;;;;;;;;;;;;;;;22.21;49.86;100883.44;4948790;28;4251;-70
2022/06/06 05:14:03;;;;;;;;;;;;;;;22.21;49.89;100880.56;4969598;28;4181;-70
2022/06/06 05:16:39;;;;;;;;;;;;;;;22.20;50.11;100888.47;4947488;28;4276;-70
2022/06/06 05:19:22;;;;;;;;;;;;;;;22.20;50.32;100893.50;4958873;28;4188;-70
2022/06/06 05:22:07;;;;;;;;;;;;;;;22.20;49.97;100894.25;4950147;28;5274;-70
2022/06/06 05:24:50;;;;;;;;;;;;;;;22.20;50.09;100897.13;4953744;28;4227;-70
2022/06/06 05:27:16;;;;;;;;;;;;;;;22.20;49.86;100894.25;4952299;28;4541;-70
2022/06/06 05:30:01;;;;;;;;;;;;;;;22.21;50.27;100906.53;4950552;28;5335;-70
2022/06/06 05:32:36;;;;;;;;;;;;;;;22.19;50.05;100898.53;4954940;28;4193;-70
2022/06/06 05:35:05;;;;;;;;;;;;;;;22.19;50.20;100910.06;4956899;28;4195;-70
2022/06/06 05:38:11;;;;;;;;;;;;;;;22.21;50.02;100918.06;4953019;28;5299;-70
2022/06/06 05:40:45;;;;;;;;;;;;;;;22.20;50.29;100922.34;4910679;29;4226;-70
2022/06/06 05:43:12;;;;;;;;;;;;;;;22.19;50.03;100924.47;4911717;29;4334;-70
2022/06/06 05:45:44;;;;;;;;;;;;;;;22.20;50.15;100925.25;4935480;28;4262;-70
2022/06/06 05:48:19;;;;;;;;;;;;;;;22.20;50.15;100936.78;4955474;28;4131;-70
2022/06/06 05:51:04;;;;;;;;;;;;;;;22.18;50.10;100938.16;4950421;28;5381;-70
2022/06/06 05:53:50;;;;;;;;;;;;;;;22.17;50.07;100936.69;4958221;28;4273;-69
2022/06/06 05:56:30;;;;;;;;;;;;;;;22.17;50.01;100948.22;4959639;28;4231;-70
2022/06/06 05:59:12;;;;;;;;;;;;;;;22.18;50.17;100938.16;4947006;28;4940;-70
2022/06/06 06:01:43;;;;;;;;;;;;;;;22.18;50.26;100948.97;4954234;28;4191;-70
2022/06/06 06:04:28;;;;;;;;;;;;;;;22.18;50.19;100946.81;4954099;28;4218;-70
2022/06/06 06:07:02;;;;;;;;;;;;;;;22.18;49.94;100949.69;4955548;28;4224;-69
2022/06/06 06:09:28;;;;;;;;;;;;;;;22.17;50.06;100954.00;4951590;28;4655;-70
2022/06/06 06:12:00;;;;;;;;;;;;;;;22.17;50.09;100959.00;4953805;28;4293;-69
2022/06/06 06:14:39;;;;;;;;;;;;;;;22.17;50.00;100962.66;4967809;28;5433;-70
2022/06/06 06:17:05;;;;;;;;;;;;;;;22.18;50.12;100969.88;4956003;28;4292;-70
2022/06/06 06:19:51;;;;;;;;;;;;;;;22.44;52.03;100969.47;4952803;28;5484;-67
2022/06/06 06:22:18;;;;;;;;;;;;;;;22.31;54.37;100967.50;4958853;28;4233;-63
2022/06/06 06:24:44;;;;;;;;;;;;;;;22.20;54.79;100977.16;4950122;28;4213;-63
2022/06/06 06:27:11;;;;;;;;;;;;;;;22.14;56.67;100977.63;4956636;28;4399;-59
2022/06/06 06:29:37;;;;;;;;;;;;;;;22.12;57.09;100981.16;4949945;28;4237;-61
2022/06/06 06:32:11;;;;;;;;;;;;;;;22.16;57.33;100974.84;4957860;28;4158;-60
2022/06/06 06:34:56;;;;;;;;;;;;;;;22.21;57.43;100975.75;4946795;28;4268;-60
2022/06/06 06:37:40;;;;;;;;;;;;;;;22.25;57.74;100981.72;4954481;28;4166;-59
2022/06/06 06:40:07;;;;;;;;;;;;;;;22.28;57.91;100977.50;4957718;28;5235;-59
2022/06/06 06:42:52;;;;;;;;;;;;;;;22.29;58.38;100970.34;4955771;28;5353;-59
2022/06/06 06:45:22;;;;;;;;;;;;;;;22.29;59.87;100970.34;4954392;28;4212;-60
2022/06/06 06:47:58;;;;;;;;;;;;;;;22.27;61.35;100978.91;4957185;28;5334;-60
2022/06/06 06:50:24;;;;;;;;;;;;;;;22.21;61.70;100975.75;4959754;28;4176;-59
2022/06/06 06:53:09;;;;;;;;;;;;;;;22.24;60.84;100988.88;4953539;28;4052;-60
2022/06/06 06:55:45;;;;;;;;;;;;;;;22.25;59.81;100981.72;4956970;28;4257;-60
2022/06/06 06:58:21;;;;;;;;;;;;;;;22.30;59.97;100971.81;4944248;28;4118;-59
2022/06/06 07:00:52;;;;;;;;;;;;;;;22.14;60.36;100978.38;4956917;28;4250;-62
2022/06/06 07:08:32;;;;;;;;;;;;;;;22.14;60.46;100983.41;4957842;28;5408;-59
2022/06/06 07:09:34;;;;;;;;;;;;;;;22.22;59.91;100974.34;4948405;28;5146;-60
2022/06/06 07:12:05;;;;;;;;;;;;;;;22.20;59.94;100974.28;4945342;28;5213;-60
2022/06/06 07:14:46;;;;;;;;;;;;;;;22.23;59.63;100973.72;4948958;28;4431;-60
2022/06/06 07:17:12;;;;;;;;;;;;;;;22.25;60.49;100970.91;4959512;28;4340;-59
2022/06/06 07:19:39;;;;;;;;;;;;;;;22.27;60.36;100976.03;4958746;28;4155;-60
2022/06/06 07:22:06;;;;;;;;;;;;;;;22.27;60.17;100973.88;4948163;28;5271;-59
2022/06/06 07:24:32;;;;;;;;;;;;;;;22.31;59.84;100967.50;4948170;28;4092;-63
2022/06/06 07:26:59;;;;;;;;;;;;;;;22.34;59.22;100971.97;4955466;28;4294;-55
2022/06/06 07:29:25;;;;;;;;;;;;;;;22.38;58.65;100966.38;4955387;28;4298;-67
2022/06/06 07:31:56;;;;;;;;;;;;;;;22.36;58.67;100969.91;4952716;28;4256;-66
2022/06/06 07:34:27;;;;;;;;;;;;;;;22.34;58.66;100963.31;4946612;28;4223;-63
2022/06/06 07:37:11;;;;;;;;;;;;;;;22.31;58.93;100955.97;4951430;28;5276;-63
2022/06/06 07:39:44;;;;;;;;;;;;;;;22.32;58.82;100960.34;4956196;28;5297;-63
2022/06/06 07:42:19;;;;;;;;;;;;;;;22.34;58.70;100948.91;4954239;28;5252;-63
2022/06/06 07:45:15;;;;;;;;;;;;;;;22.34;57.86;100948.91;4969541;28;4254;-63
2022/06/06 07:47:46;;;;;;;;;;;;;;;22.34;57.74;100948.91;4943834;28;4328;-63
2022/06/06 07:50:19;;;;;;;;;;;;;;;22.35;57.43;100950.38;4962896;28;5209;-63
2022/06/06 07:52:45;;;;;;;;;;;;;;;22.35;57.35;100944.59;4953600;28;4131;-63
2022/06/06 07:55:18;;;;;;;;;;;;;;;22.33;57.02;100947.41;4952916;28;5367;-63
2022/06/06 07:58:08;;;;;;;;;;;;;;;22.34;57.04;100954.66;4948079;28;4240;-63
2022/06/06 08:00:34;;;;;;;;;;;;;;;22.35;56.91;100956.13;4954137;28;5196;-62
2022/06/06 08:03:06;;;;;;;;;;;;;;;22.35;56.48;100956.13;4955275;28;5015;-63
2022/06/06 08:05:45;;;;;;;;;;;;;;;22.35;56.54;100956.88;4944049;28;4287;-63
2022/06/06 08:08:18;;;;;;;;;;;;;;;22.35;56.61;100956.13;4962035;28;4036;-63
2022/06/06 08:10:45;;;;;;;;;;;;;;;22.35;56.34;100950.38;4957378;28;5291;-62
2022/06/06 08:13:28;;;;;;;;;;;;;;;22.35;56.11;100944.59;4958764;28;4320;-65
2022/06/06 08:16:03;;;;;;;;;;;;;;;22.35;56.18;100961.91;4955529;28;5058;-64
2022/06/06 08:18:37;;;;;;;;;;;;;;;22.36;56.05;100963.41;4956659;28;4206;-64
2022/06/06 08:21:12;;;;;;;;;;;;;;;22.36;56.04;100966.28;4964021;28;5372;-64
2022/06/06 08:23:38;;;;;;;;;;;;;;;22.34;55.95;100961.19;4958025;28;4208;-64
2022/06/06 08:26:05;;;;;;;;;;;;;;;22.35;56.04;100967.69;4951329;28;5435;-64
2022/06/06 08:28:32;;;;;;;;;;;;;;;22.35;55.94;100962.66;4954692;28;4097;-64
2022/06/06 08:30:58;;;;;;;;;;;;;;;22.35;55.68;100956.88;4960668;28;4240;-64
2022/06/06 08:33:25;;;;;;;;;;;;;;;22.34;55.96;100957.56;4961315;28;4238;-64
2022/06/06 08:35:58;;;;;;;;;;;;;;;22.32;55.86;100952.44;4959557;28;4330;-64
2022/06/06 08:38:28;;;;;;;;;;;;;;;22.35;55.60;100956.13;4961475;28;4297;-64
2022/06/06 08:40:57;;;;;;;;;;;;;;;22.34;55.52;100943.13;4957985;28;5555;-64
2022/06/06 08:43:42;;;;;;;;;;;;;;;22.34;55.49;100949.63;4963498;28;4058;-64
2022/06/06 08:46:17;;;;;;;;;;;;;;;22.35;55.48;100947.47;4965102;28;5257;-64
2022/06/06 08:48:50;;;;;;;;;;;;;;;22.34;55.59;100946.75;4950229;28;5263;-64
2022/06/06 08:51:36;;;;;;;;;;;;;;;22.36;55.33;100951.88;4950556;28;4205;-63
2022/06/06 08:54:11;;;;;;;;;;;;;;;22.36;55.37;100948.97;4963268;28;4190;-64
2022/06/06 08:57:01;;;;;;;;;;;;;;;22.37;55.26;100936.03;4960706;28;4243;-64
2022/06/06 08:59:37;;;;;;;;;;;;;;;22.36;55.26;100940.31;4954720;28;4120;-64
2022/06/06 09:02:22;;;;;;;;;;;;;;;22.36;55.37;100943.22;4956828;28;4309;-63
2022/06/06 09:05:13;;;;;;;;;;;;;;;22.36;55.31;100941.06;4962197;28;4215;-63
2022/06/06 09:07:51;;;;;;;;;;;;;;;22.36;55.27;100943.94;4953057;28;4226;-63
2022/06/06 09:10:36;;;;;;;;;;;;;;;22.37;54.95;100944.69;4958818;28;4789;-63
2022/06/06 09:13:03;;;;;;;;;;;;;;;22.37;55.09;100933.88;4961686;28;4282;-64
2022/06/06 09:15:35;;;;;;;;;;;;;;;22.37;54.78;100936.75;4961242;28;4120;-63
2022/06/06 09:18:07;;;;;;;;;;;;;;;22.37;54.87;100936.03;4960960;28;5497;-63
2022/06/06 09:20:36;;;;;;;;;;;;;;;22.36;55.07;100935.28;4957826;28;4456;-63
2022/06/06 09:23:23;;;;;;;;;;;;;;;22.36;54.75;100943.94;4960465;28;4182;-64
2022/06/06 09:25:55;;;;;;;;;;;;;;;22.37;54.93;100953.34;4955599;28;4561;-64
2022/06/06 09:28:34;;;;;;;;;;;;;;;22.38;54.94;100949.06;4958646;28;4212;-64
2022/06/06 09:31:19;;;;;;;;;;;;;;;22.37;54.66;100950.47;4950020;28;4212;-64
2022/06/06 09:33:45;;;;;;;;;;;;;;;22.38;54.54;100960.59;4953819;28;4308;-64
2022/06/06 09:36:23;;;;;;;;;;;;;;;22.38;54.45;100949.06;4954444;28;4195;-63
2022/06/06 09:39:00;;;;;;;;;;;;;;;22.39;54.56;100950.53;4954854;28;4198;-64
2022/06/06 09:41:37;;;;;;;;;;;;;;;22.38;54.52;100943.28;4963840;28;4248;-64
2022/06/06 09:44:05;;;;;;;;;;;;;;;22.39;54.93;100944.78;4963918;28;4215;-64
2022/06/06 09:46:40;;;;;;;;;;;;;;;22.39;54.56;100941.88;4950028;28;4233;-64
2022/06/06 09:49:28;;;;;;;;;;;;;;;22.39;54.61;100941.88;4958468;28;4075;-64
2022/06/06 09:51:58;;;;;;;;;;;;;;;22.40;54.44;100940.47;4958653;28;4238;-63
2022/06/06 10:00:43;;;;;;;;;;;;;;;22.40;54.58;100954.16;4960338;28;5196;-63
2022/06/06 10:03:24;;;;;;;;;;;;;;;22.39;54.37;100950.53;4952925;28;4239;-63
2022/06/06 10:05:59;;;;;;;;;;;;;;;22.40;54.36;100954.91;4960888;28;4221;-63
2022/06/06 10:08:34;;;;;;;;;;;;;;;22.40;54.06;100952.00;4955429;28;4363;-64
2022/06/06 10:11:16;;;;;;;;;;;;;;;22.41;54.49;100958.53;4958653;28;4221;-63
2022/06/06 10:13:57;;;;;;;;;;;;;;;22.42;54.49;100954.97;4960605;28;6377;-64
2022/06/06 10:16:42;;;;;;;;;;;;;;;22.41;54.26;100950.63;4961647;28;4218;-63
2022/06/06 10:19:12;;;;;;;;;;;;;;;22.40;54.09;100963.56;4945010;28;5166;-68
2022/06/06 10:21:57;;;;;;;;;;;;;;;22.43;54.50;100962.25;4953740;28;4073;-62
2022/06/06 10:24:42;;;;;;;;;;;;;;;22.42;54.57;100960.75;4953720;28;4203;-67
2022/06/06 10:27:27;;;;;;;;;;;;;;;22.43;54.41;100968.03;4957563;28;4187;-67
2022/06/06 10:30:12;;;;;;;;;;;;;;;22.43;54.41;100968.03;4960295;28;4232;-61
2022/06/06 10:32:58;;;;;;;;;;;;;;;22.45;54.40;100965.22;4951733;28;4080;-61
2022/06/06 10:35:29;;;;;;;;;;;;;;;22.49;54.78;100958.84;4944819;28;4334;-64
2022/06/06 10:38:13;;;;;;;;;;;;;;;22.51;54.61;100956.03;4948341;28;4258;-63
2022/06/06 10:40:58;;;;;;;;;;;;;;;22.49;54.68;100962.47;4953885;28;5514;-63
2022/06/06 10:43:42;;;;;;;;;;;;;;;22.48;54.84;100958.09;4958621;28;4145;-63
2022/06/06 10:46:25;;;;;;;;;;;;;;;22.46;54.76;100955.13;4945650;28;5203;-64
2022/06/06 10:48:58;;;;;;;;;;;;;;;22.48;54.94;100949.44;4957037;28;4264;-64
2022/06/06 10:51:48;;;;;;;;;;;;;;;22.47;54.43;100945.09;4956104;28;4240;-64
2022/06/06 10:54:17;;;;;;;;;;;;;;;22.48;54.87;100946.56;4952955;28;4310;-64
2022/06/06 10:56:55;;;;;;;;;;;;;;;22.47;54.46;100939.31;4950726;28;4139;-64
2022/06/06 10:59:27;;;;;;;;;;;;;;;22.49;54.44;100941.53;4957472;28;4253;-63
2022/06/06 11:01:58;;;;;;;;;;;;;;;22.48;54.37;100937.91;4949237;28;4270;-63
2022/06/06 11:04:31;;;;;;;;;;;;;;;22.48;54.63;100946.56;4956152;28;4102;-64
2022/06/06 11:07:15;;;;;;;;;;;;;;;22.49;54.63;100944.41;4953013;28;5485;-63
2022/06/06 11:09:54;;;;;;;;;;;;;;;22.50;54.47;100946.66;4954090;28;4074;-64
2022/06/06 11:12:20;;;;;;;;;;;;;;;22.49;54.57;100936.50;4953417;28;4291;-64
2022/06/06 11:14:46;;;;;;;;;;;;;;;22.57;54.72;100925.28;4951554;28;4193;-65
2022/06/06 11:17:24;;;;;;;;;;;;;;;22.59;54.30;100927.50;4949593;28;4401;-64
2022/06/06 11:20:05;;;;;;;;;;;;;;;22.58;54.69;100935.41;4976153;28;4343;-64
2022/06/06 11:22:32;;;;;;;;;;;;;;;22.57;54.65;100930.31;4954989;28;4210;-65
2022/06/06 11:25:06;;;;;;;;;;;;;;;22.54;54.61;100932.38;4950168;28;4274;-64
2022/06/06 11:27:35;;;;;;;;;;;;;;;22.53;54.47;100928.00;4953588;28;4256;-64
2022/06/06 11:30:04;;;;;;;;;;;;;;;22.54;54.45;100929.50;4952155;28;4396;-64
2022/06/06 11:32:45;;;;;;;;;;;;;;;22.54;54.49;100931.63;4953054;28;4068;-64
2022/06/06 11:35:15;;;;;;;;;;;;;;;22.54;54.46;100923.72;4957243;28;4280;-64
2022/06/06 11:38:00;;;;;;;;;;;;;;;22.55;54.40;100928.09;4953339;28;4346;-64
2022/06/06 11:40:32;;;;;;;;;;;;;;;22.56;54.35;100923.81;4951683;28;4147;-64
2022/06/06 11:43:04;;;;;;;;;;;;;;;22.57;54.31;100919.50;4973338;28;4310;-64
2022/06/06 11:45:43;;;;;;;;;;;;;;;22.57;54.26;100922.38;4954141;28;4270;-64
2022/06/06 11:48:24;;;;;;;;;;;;;;;22.57;53.98;100916.63;4952653;28;4179;-64
2022/06/06 11:51:09;;;;;;;;;;;;;;;22.55;54.08;100922.31;4960313;28;5510;-64
2022/06/06 11:53:54;;;;;;;;;;;;;;;22.57;53.94;100913.00;4958334;28;4129;-64
2022/06/06 11:56:41;;;;;;;;;;;;;;;22.57;54.21;100913.00;4964373;28;7039;-62
2022/06/06 11:59:16;;;;;;;;;;;;;;;22.57;54.17;100913.72;4962820;28;4254;-63
2022/06/06 12:02:01;;;;;;;;;;;;;;;22.58;54.31;100914.47;4956279;28;4204;-62
2022/06/06 12:04:48;;;;;;;;;;;;;;;22.58;54.16;100915.19;4961763;28;4178;-62
2022/06/06 12:07:31;;;;;;;;;;;;;;;22.59;54.38;100916.69;4934420;28;4370;-62
2022/06/06 12:10:08;;;;;;;;;;;;;;;22.61;54.43;100921.81;4971666;28;4256;-62
2022/06/06 12:12:53;;;;;;;;;;;;;;;22.61;54.51;100913.16;4942499;28;4280;-62
2022/06/06 12:15:29;;;;;;;;;;;;;;;22.61;54.63;100913.16;4951744;28;4355;-62
2022/06/06 12:18:11;;;;;;;;;;;;;;;22.62;54.55;100902.34;4956041;28;5269;-62
2022/06/06 12:20:57;;;;;;;;;;;;;;;22.63;54.65;100903.81;4955394;28;4273;-62
2022/06/06 12:23:31;;;;;;;;;;;;;;;22.65;55.04;100915.44;4962099;28;4266;-62
2022/06/06 12:25:59;;;;;;;;;;;;;;;22.64;54.90;100911.09;4956738;28;5530;-62
2022/06/06 12:28:42;;;;;;;;;;;;;;;22.64;55.10;100908.94;4954909;28;4288;-62
2022/06/06 12:31:18;;;;;;;;;;;;;;;22.67;55.09;100915.53;4951277;28;4248;-62
2022/06/06 12:33:47;;;;;;;;;;;;;;;22.67;55.39;100910.47;4961762;28;4100;-62
2022/06/06 12:36:16;;;;;;;;;;;;;;;22.69;55.26;100906.94;4953948;28;5356;-62
2022/06/06 12:38:46;;;;;;;;;;;;;;;22.70;55.23;100897.63;4958326;28;4263;-62
2022/06/06 12:41:15;;;;;;;;;;;;;;;22.71;54.94;100898.34;4951289;28;4184;-62
2022/06/06 12:43:54;;;;;;;;;;;;;;;22.70;54.83;100891.09;4957682;28;4038;-62
2022/06/06 12:46:24;;;;;;;;;;;;;;;22.71;55.07;100886.81;4959223;28;5265;-62
2022/06/06 12:48:56;;;;;;;;;;;;;;;22.71;55.20;100886.81;4956873;28;4301;-62
2022/06/06 12:51:35;;;;;;;;;;;;;;;22.71;55.14;100881.78;4953694;28;4993;-63
2022/06/06 12:54:06;;;;;;;;;;;;;;;22.72;55.27;100883.28;4954333;28;4220;-63
2022/06/06 12:56:39;;;;;;;;;;;;;;;22.71;55.19;100876.00;4947797;28;4611;-63
2022/06/06 12:59:13;;;;;;;;;;;;;;;22.72;55.38;100882.50;4950590;28;5233;-64
2022/06/06 13:01:42;;;;;;;;;;;;;;;22.72;55.14;100870.97;4952005;28;4097;-64
2022/06/06 13:04:27;;;;;;;;;;;;;;;22.72;55.68;100883.28;4953561;28;5348;-63
2022/06/06 13:06:59;;;;;;;;;;;;;;;22.73;55.45;100884.00;4949109;28;6442;-64
2022/06/06 13:09:37;;;;;;;;;;;;;;;22.73;55.45;100884.00;4959922;28;4227;-63
2022/06/06 13:12:22;;;;;;;;;;;;;;;22.73;55.44;100878.97;4965608;28;5437;-64
2022/06/06 13:14:55;;;;;;;;;;;;;;;22.74;55.45;100879.69;4960855;28;4185;-63
2022/06/06 13:17:27;;;;;;;;;;;;;;;22.74;55.34;100868.16;4960791;28;4117;-63
2022/06/06 13:19:57;;;;;;;;;;;;;;;22.73;55.49;100872.47;4957115;28;5549;-64
2022/06/06 13:22:35;;;;;;;;;;;;;;;22.75;55.28;100875.44;4957382;28;4144;-63
2022/06/06 13:25:12;;;;;;;;;;;;;;;22.75;55.41;100866.75;4953163;28;5311;-63
2022/06/06 13:27:59;;;;;;;;;;;;;;;22.75;55.58;100866.75;4948348;28;4265;-64
2022/06/06 13:30:27;;;;;;;;;;;;;;;22.75;55.34;100863.88;4957234;28;4379;-63
2022/06/06 13:33:17;;;;;;;;;;;;;;;22.76;55.39;100865.34;4962916;28;4238;-63
2022/06/06 13:35:59;;;;;;;;;;;;;;;22.76;55.33;100860.31;4953900;28;4092;-63
2022/06/06 13:38:38;;;;;;;;;;;;;;;22.76;55.55;100859.56;4960138;28;4287;-63
2022/06/06 13:41:08;;;;;;;;;;;;;;;22.75;55.45;100846.56;4950985;28;5199;-63
2022/06/06 13:43:34;;;;;;;;;;;;;;;22.76;55.48;100850.91;4961379;28;4622;-63